Time;durP1;ratioP1;P1;durP2;ratioP2;P2;SDS_P1;SDS_P2;PMS_P1;PMS_P2;Temp;Humidity;BMP_temperature;BMP_pressure;BME280_temperature;BME280_humidity;BME280_pressure;Samples;Min_cycle;Max_cycle;Signal;HPM_P1;HPM_P2
2024/01/17 00:02:07;;;;;;;36.95;28.73;;;-7.00;99.90;;;;;;4964915;28;20050;-73
2024/01/17 00:04:34;;;;;;;40.38;27.85;;;-7.10;99.90;;;;;;4983501;28;20489;-70
2024/01/17 00:07:00;;;;;;;37.40;28.13;;;-7.00;99.90;;;;;;4948434;28;20073;-70
2024/01/17 00:09:28;;;;;;;42.47;27.90;;;-7.00;99.90;;;;;;4967204;28;20054;-73
2024/01/17 00:11:54;;;;;;;46.10;28.70;;;-7.20;99.90;;;;;;4967967;28;20732;-74
2024/01/17 00:14:21;;;;;;;38.25;28.88;;;-7.00;99.90;;;;;;4965527;28;20927;-74
2024/01/17 00:16:48;;;;;;;30.52;27.05;;;-7.10;99.90;;;;;;4967568;28;20038;-73
2024/01/17 00:19:15;;;;;;;33.03;26.75;;;-7.10;99.90;;;;;;4967803;28;20972;-72
2024/01/17 00:21:42;;;;;;;38.08;24.58;;;-6.90;99.90;;;;;;4957038;28;20459;-73
2024/01/17 00:24:09;;;;;;;37.00;22.10;;;-6.90;99.90;;;;;;4961985;28;20051;-72
2024/01/17 00:26:36;;;;;;;37.58;21.92;;;-6.70;99.90;;;;;;4971396;28;20054;-73
2024/01/17 00:29:02;;;;;;;25.55;20.23;;;-6.70;99.90;;;;;;4966653;28;20041;-72
2024/01/17 00:31:29;;;;;;;28.73;20.48;;;-6.70;99.90;;;;;;4971851;28;20042;-73
2024/01/17 00:33:56;;;;;;;28.60;19.67;;;-6.50;99.90;;;;;;4966567;28;20050;-73
2024/01/17 00:36:23;;;;;;;28.63;19.63;;;-6.50;99.90;;;;;;4960298;28;20097;-73
2024/01/17 00:38:51;;;;;;;24.85;19.63;;;-6.30;99.90;;;;;;4953669;28;20066;-73
2024/01/17 00:41:20;;;;;;;23.80;19.67;;;-6.30;99.90;;;;;;4947551;28;20039;-70
2024/01/17 00:43:47;;;;;;;20.60;18.35;;;-6.20;99.90;;;;;;4965182;28;20043;-70
2024/01/17 00:46:14;;;;;;;30.08;19.05;;;-6.10;99.90;;;;;;4966013;28;20053;-71
2024/01/17 00:48:42;;;;;;;24.88;18.52;;;-6.10;99.90;;;;;;4971316;28;20709;-71
2024/01/17 00:51:09;;;;;;;21.92;18.17;;;-6.10;99.90;;;;;;4978917;28;20060;-71
2024/01/17 00:53:35;;;;;;;24.08;19.05;;;-6.10;99.90;;;;;;4969775;28;20034;-70
2024/01/17 00:56:02;;;;;;;28.23;18.80;;;-6.20;99.90;;;;;;4967515;28;20049;-71
2024/01/17 00:58:29;;;;;;;28.02;19.92;;;-6.10;99.90;;;;;;4975380;28;20046;-72
2024/01/17 01:00:56;;;;;;;27.55;19.60;;;-6.10;99.90;;;;;;4968758;28;20053;-71
2024/01/17 01:03:23;;;;;;;27.60;19.35;;;-6.00;99.90;;;;;;4969808;28;20074;-71
2024/01/17 01:05:49;;;;;;;24.75;19.30;;;-5.90;99.90;;;;;;4970560;28;20046;-69
2024/01/17 01:08:16;;;;;;;24.05;19.75;;;-5.80;99.90;;;;;;4971818;28;20061;-70
2024/01/17 01:10:43;;;;;;;20.98;18.08;;;-5.70;99.90;;;;;;4973717;28;20097;-70
2024/01/17 01:13:10;;;;;;;20.73;18.55;;;-5.60;99.90;;;;;;4967708;28;20182;-72
2024/01/17 01:15:37;;;;;;;22.00;19.63;;;-5.50;99.90;;;;;;4971065;28;20100;-71
2024/01/17 01:18:04;;;;;;;24.42;18.52;;;-5.50;99.90;;;;;;4970618;28;20120;-72
2024/01/17 01:20:30;;;;;;;20.15;18.02;;;-5.50;99.90;;;;;;4974365;28;20046;-72
2024/01/17 01:22:57;;;;;;;29.77;19.23;;;-5.50;99.90;;;;;;4982488;28;20058;-72
2024/01/17 01:25:25;;;;;;;23.33;19.80;;;-5.40;99.90;;;;;;4971283;28;20054;-72
2024/01/17 01:27:52;;;;;;;28.30;20.45;;;-5.50;99.90;;;;;;4974369;28;20049;-72
2024/01/17 01:30:19;;;;;;;28.15;20.42;;;-5.50;99.90;;;;;;4969681;28;20688;-72
2024/01/17 01:32:46;;;;;;;31.23;20.92;;;-5.60;99.90;;;;;;4969914;28;20137;-72
2024/01/17 01:35:13;;;;;;;23.67;21.15;;;-5.60;99.90;;;;;;4967745;28;20261;-72
2024/01/17 01:37:40;;;;;;;25.02;22.48;;;-5.70;99.90;;;;;;4975201;28;20050;-72
2024/01/17 01:40:07;;;;;;;24.83;22.20;;;-6.00;99.90;;;;;;4958448;28;20488;-72
2024/01/17 01:42:35;;;;;;;27.80;22.65;;;-6.20;99.90;;;;;;4977771;28;20142;-72
2024/01/17 01:45:01;;;;;;;27.42;21.52;;;-6.10;99.90;;;;;;4967247;28;20038;-72
2024/01/17 01:47:29;;;;;;;24.52;21.02;;;-6.00;99.90;;;;;;4967984;28;20051;-74
2024/01/17 01:49:56;;;;;;;31.08;21.90;;;-6.20;99.90;;;;;;4956193;28;20473;-75
2024/01/17 01:52:24;;;;;;;30.00;22.15;;;-6.20;99.90;;;;;;4973119;28;20053;-74
2024/01/17 01:54:51;;;;;;;38.50;21.05;;;-6.20;99.90;;;;;;4972600;28;20042;-74
2024/01/17 01:57:18;;;;;;;22.83;20.42;;;-6.20;99.90;;;;;;4981409;28;22711;-75
2024/01/17 01:59:46;;;;;;;23.42;20.88;;;-6.30;99.90;;;;;;4975015;28;20101;-71
2024/01/17 02:02:14;;;;;;;23.75;20.25;;;-6.40;99.90;;;;;;4970059;28;20113;-75
2024/01/17 02:04:42;;;;;;;23.52;20.98;;;-6.50;99.90;;;;;;4968371;28;20045;-72
2024/01/17 02:07:12;;;;;;;24.10;20.67;;;-6.70;99.90;;;;;;4965782;28;20039;-72
2024/01/17 02:09:41;;;;;;;28.70;22.20;;;-6.80;99.90;;;;;;4969682;28;20111;-72
2024/01/17 02:12:08;;;;;;;30.33;22.05;;;-6.90;99.90;;;;;;4966097;28;20039;-74
2024/01/17 02:14:40;;;;;;;31.65;22.67;;;-7.00;99.90;;;;;;4968896;28;20043;-70
2024/01/17 02:17:10;;;;;;;25.85;22.00;;;-7.10;99.90;;;;;;4964438;28;20135;-72
2024/01/17 02:19:41;;;;;;;27.92;21.40;;;-7.00;99.90;;;;;;4969690;28;20126;-72
2024/01/17 02:22:08;;;;;;;35.30;21.48;;;-7.00;99.90;;;;;;4976905;28;20038;-71
2024/01/17 02:24:34;;;;;;;30.25;20.73;;;-7.10;99.90;;;;;;4970865;28;20138;-70
2024/01/17 02:27:01;;;;;;;30.40;20.40;;;-7.20;99.90;;;;;;4969119;28;20151;-72
2024/01/17 02:29:29;;;;;;;23.80;20.15;;;-7.40;99.90;;;;;;4978838;28;20069;-72
2024/01/17 02:31:56;;;;;;;22.77;20.30;;;-7.40;99.90;;;;;;4959695;28;20259;-73
2024/01/17 02:34:23;;;;;;;23.40;20.52;;;-7.60;99.90;;;;;;4968029;28;20698;-75
2024/01/17 02:36:51;;;;;;;25.90;20.70;;;-7.70;99.90;;;;;;4976592;28;20069;-75
2024/01/17 02:39:17;;;;;;;24.30;21.35;;;-7.80;99.90;;;;;;4968926;28;20533;-74
2024/01/17 02:41:44;;;;;;;31.33;22.42;;;-7.90;99.90;;;;;;4975290;28;20053;-72
2024/01/17 02:44:11;;;;;;;23.23;20.83;;;-7.90;99.90;;;;;;4962458;28;20047;-71
2024/01/17 02:46:38;;;;;;;30.40;21.65;;;-8.20;99.90;;;;;;4957097;28;20066;-69
2024/01/17 02:49:05;;;;;;;25.85;20.92;;;-8.20;99.90;;;;;;4994076;28;20657;-70
2024/01/17 02:51:32;;;;;;;22.73;20.40;;;-8.30;99.90;;;;;;4970190;28;20493;-71
2024/01/17 02:53:59;;;;;;;22.42;20.20;;;-8.30;99.90;;;;;;4961826;28;20761;-73
2024/01/17 02:56:26;;;;;;;21.05;18.80;;;-8.10;99.90;;;;;;4954053;28;20125;-71
2024/01/17 02:58:53;;;;;;;22.80;19.67;;;-8.20;99.90;;;;;;4964882;28;20097;-72
2024/01/17 03:01:20;;;;;;;23.20;19.27;;;-8.10;99.90;;;;;;4961531;28;20081;-75
2024/01/17 03:03:47;;;;;;;22.55;18.67;;;-8.10;99.90;;;;;;4972417;28;20139;-72
2024/01/17 03:06:16;;;;;;;23.63;19.13;;;-8.10;99.90;;;;;;4962259;28;20061;-72
2024/01/17 03:08:44;;;;;;;22.85;19.23;;;-8.10;99.90;;;;;;4978290;28;20117;-73
2024/01/17 03:11:10;;;;;;;25.00;19.27;;;-8.20;99.90;;;;;;4967782;28;20042;-73
2024/01/17 03:13:37;;;;;;;25.15;19.15;;;-8.10;99.90;;;;;;4970763;28;20053;-74
2024/01/17 03:16:04;;;;;;;23.75;19.08;;;-8.30;99.90;;;;;;4975184;28;20711;-69
2024/01/17 03:18:31;;;;;;;23.85;20.90;;;-8.40;99.90;;;;;;4956868;28;20074;-72
2024/01/17 03:20:57;;;;;;;24.55;20.92;;;-8.70;99.90;;;;;;4947795;28;20070;-72
2024/01/17 03:23:24;;;;;;;24.50;19.63;;;-8.80;99.90;;;;;;4968268;28;21331;-72
2024/01/17 03:25:51;;;;;;;26.20;19.50;;;-8.60;99.90;;;;;;4975087;28;20042;-71
2024/01/17 03:28:18;;;;;;;23.33;19.30;;;-8.50;99.90;;;;;;4968655;28;20077;-72
2024/01/17 03:30:45;;;;;;;22.40;19.10;;;-8.50;99.90;;;;;;4968667;28;20042;-72
2024/01/17 03:33:11;;;;;;;22.60;18.38;;;-8.50;99.90;;;;;;4964608;28;20045;-74
2024/01/17 03:35:38;;;;;;;22.85;19.17;;;-8.50;99.90;;;;;;4971791;28;20042;-72
2024/01/17 03:38:06;;;;;;;21.58;18.90;;;-8.50;99.90;;;;;;4956086;28;20053;-72
2024/01/17 03:40:32;;;;;;;21.80;18.92;;;-8.50;99.90;;;;;;4957418;28;20042;-72
2024/01/17 03:42:59;;;;;;;23.70;19.73;;;-8.50;99.90;;;;;;4972716;28;20047;-72
2024/01/17 03:45:26;;;;;;;23.77;20.45;;;-8.50;99.90;;;;;;4959018;28;20169;-72
2024/01/17 03:47:53;;;;;;;21.05;18.83;;;-8.70;99.90;;;;;;4969716;28;20050;-73
2024/01/17 03:50:20;;;;;;;22.17;19.63;;;-8.70;99.90;;;;;;4963740;28;20131;-72
2024/01/17 03:52:47;;;;;;;24.20;19.60;;;-8.60;99.90;;;;;;4973814;28;20034;-73
2024/01/17 03:55:14;;;;;;;22.50;18.70;;;-8.40;99.90;;;;;;4959188;28;20050;-72
2024/01/17 03:57:41;;;;;;;24.77;18.13;;;-8.40;99.90;;;;;;4958029;28;20135;-72
2024/01/17 04:00:10;;;;;;;24.63;18.98;;;-8.20;99.90;;;;;;4960950;28;20050;-72
2024/01/17 04:02:39;;;;;;;34.22;20.15;;;-8.30;99.90;;;;;;4936841;28;20050;-72
2024/01/17 04:05:06;;;;;;;24.45;20.15;;;-8.10;99.90;;;;;;4956186;28;20505;-73
2024/01/17 04:07:33;;;;;;;30.67;19.48;;;-7.90;99.90;;;;;;4940285;28;20078;-73
2024/01/17 04:10:00;;;;;;;23.35;18.38;;;-7.70;99.90;;;;;;4956673;28;20689;-72
2024/01/17 04:12:27;;;;;;;29.70;19.38;;;-7.60;99.90;;;;;;4942610;28;20117;-72
2024/01/17 04:14:54;;;;;;;33.35;19.80;;;-7.50;99.90;;;;;;4944707;28;20138;-72
2024/01/17 04:17:21;;;;;;;33.70;20.83;;;-7.40;99.90;;;;;;4964189;28;20038;-73
2024/01/17 04:19:48;;;;;;;34.58;21.48;;;-7.30;99.90;;;;;;4968464;28;20489;-72
2024/01/17 04:22:15;;;;;;;38.13;22.63;;;-7.10;99.90;;;;;;4951261;28;20066;-73
2024/01/17 04:24:41;;;;;;;35.40;20.70;;;-6.90;99.90;;;;;;4945155;28;20050;-73
2024/01/17 04:27:08;;;;;;;36.10;20.80;;;-6.70;99.90;;;;;;4970251;28;20116;-73
2024/01/17 04:29:37;;;;;;;35.72;21.42;;;-6.60;99.90;;;;;;4971250;28;20641;-73
2024/01/17 04:32:04;;;;;;;32.47;21.15;;;-6.60;99.90;;;;;;4979707;28;20038;-74
2024/01/17 04:34:31;;;;;;;40.05;23.08;;;-6.50;99.90;;;;;;4967452;28;20750;-73
2024/01/17 04:36:58;;;;;;;38.80;22.48;;;-6.50;99.90;;;;;;4962810;28;20046;-74
2024/01/17 04:39:24;;;;;;;37.65;23.75;;;-6.30;99.90;;;;;;4951896;28;20046;-75
2024/01/17 04:41:51;;;;;;;31.88;19.60;;;-6.10;99.90;;;;;;4966053;28;20133;-74
2024/01/17 04:44:18;;;;;;;47.63;23.10;;;-6.00;99.90;;;;;;4953363;28;20600;-75
2024/01/17 04:46:46;;;;;;;48.47;25.55;;;-5.70;99.90;;;;;;4963789;28;20042;-74
2024/01/17 04:49:13;;;;;;;44.97;25.10;;;-5.60;99.90;;;;;;4971488;28;20544;-74
2024/01/17 04:51:41;;;;;;;48.60;24.08;;;-5.40;99.90;;;;;;4958130;28;21051;-75
2024/01/17 04:54:08;;;;;;;37.13;23.05;;;-5.40;99.90;;;;;;4961660;28;20047;-72
2024/01/17 04:56:35;;;;;;;44.30;25.20;;;-5.20;99.90;;;;;;4962308;28;20049;-73
2024/01/17 04:59:02;;;;;;;48.13;24.13;;;-5.10;99.90;;;;;;4964378;28;20070;-73
2024/01/17 05:01:29;;;;;;;44.72;24.60;;;-5.00;99.90;;;;;;4962869;28;20050;-72
2024/01/17 05:03:56;;;;;;;44.88;24.35;;;-5.00;99.90;;;;;;4974012;28;20042;-71
2024/01/17 05:06:22;;;;;;;46.03;28.05;;;-4.90;99.90;;;;;;4964484;28;20217;-71
2024/01/17 05:08:50;;;;;;;37.45;25.13;;;-4.90;99.90;;;;;;4961477;28;20039;-72
2024/01/17 05:11:24;;;;;;;45.70;27.08;;;-4.90;99.90;;;;;;4948419;28;20047;-71
2024/01/17 05:13:51;;;;;;;45.25;29.45;;;-4.80;99.90;;;;;;4958154;28;20043;-72
2024/01/17 05:16:19;;;;;;;44.63;28.77;;;-4.80;99.90;;;;;;4958924;28;20181;-71
2024/01/17 05:18:46;;;;;;;45.67;28.23;;;-4.80;99.90;;;;;;4991334;28;20042;-73
2024/01/17 05:21:13;;;;;;;55.40;31.70;;;-4.70;99.90;;;;;;4969063;28;20087;-73
2024/01/17 05:23:40;;;;;;;52.13;29.67;;;-4.70;99.90;;;;;;4953650;28;20568;-74
2024/01/17 05:26:06;;;;;;;51.58;32.60;;;-4.70;99.90;;;;;;4942326;28;20047;-73
2024/01/17 05:28:33;;;;;;;40.67;30.13;;;-4.60;99.90;;;;;;4953483;28;20055;-73
2024/01/17 05:31:01;;;;;;;44.70;29.00;;;-4.90;99.90;;;;;;4965081;28;20042;-73
2024/01/17 05:33:27;;;;;;;55.88;32.08;;;-5.00;99.90;;;;;;4964815;28;20513;-71
2024/01/17 05:35:54;;;;;;;44.40;29.55;;;-5.00;99.90;;;;;;4969172;28;20619;-70
2024/01/17 05:38:21;;;;;;;43.25;27.98;;;-5.00;99.90;;;;;;4969846;28;20045;-72
2024/01/17 05:40:48;;;;;;;43.15;27.40;;;-5.00;99.90;;;;;;4981077;28;20046;-71
2024/01/17 05:43:15;;;;;;;45.08;28.85;;;-5.10;99.90;;;;;;4979663;28;20065;-70
2024/01/17 05:45:42;;;;;;;47.97;27.98;;;-5.20;99.90;;;;;;4963525;28;20158;-71
2024/01/17 05:48:09;;;;;;;48.25;27.85;;;-5.10;99.90;;;;;;4960557;28;20066;-70
2024/01/17 05:50:36;;;;;;;38.65;27.48;;;-5.20;99.90;;;;;;4959014;28;21475;-72
2024/01/17 05:53:06;;;;;;;45.47;28.75;;;-5.20;99.90;;;;;;4949958;28;20051;-72
2024/01/17 05:55:33;;;;;;;49.45;29.98;;;-5.10;99.90;;;;;;4954205;28;20652;-70
2024/01/17 05:57:59;;;;;;;47.10;29.30;;;-5.20;99.90;;;;;;4973483;28;20650;-72
2024/01/17 06:00:26;;;;;;;47.80;28.67;;;-5.00;99.90;;;;;;4970358;28;20050;-72
2024/01/17 06:02:53;;;;;;;51.35;29.95;;;-4.90;99.90;;;;;;4971790;28;20530;-70
2024/01/17 06:05:20;;;;;;;43.45;29.65;;;-4.80;99.90;;;;;;4964352;28;20045;-72
2024/01/17 06:07:47;;;;;;;44.45;27.67;;;-4.80;99.90;;;;;;4960423;28;20046;-73
2024/01/17 06:10:14;;;;;;;57.42;31.05;;;-4.70;99.90;;;;;;4968353;28;20035;-71
2024/01/17 06:12:44;;;;;;;48.72;30.90;;;-4.60;99.90;;;;;;4950784;28;20057;-73
2024/01/17 06:15:17;;;;;;;44.80;28.60;;;-4.50;99.90;;;;;;4952725;28;20558;-73
2024/01/17 06:17:44;;;;;;;51.58;32.97;;;-4.50;99.90;;;;;;4972880;28;20042;-73
2024/01/17 06:20:12;;;;;;;53.85;29.70;;;-4.50;99.90;;;;;;4981942;28;20057;-72
2024/01/17 06:22:38;;;;;;;40.70;26.65;;;-4.50;99.90;;;;;;4983460;28;20260;-72
2024/01/17 06:25:07;;;;;;;45.38;29.77;;;-4.60;99.90;;;;;;4965561;28;20050;-71
2024/01/17 06:27:34;;;;;;;44.45;29.05;;;-4.50;99.90;;;;;;4948079;28;20078;-71
2024/01/17 06:30:00;;;;;;;53.20;31.70;;;-4.50;99.90;;;;;;4952383;28;20166;-72
2024/01/17 06:32:27;;;;;;;45.33;31.67;;;-4.40;99.90;;;;;;4947624;28;20043;-72
2024/01/17 06:34:54;;;;;;;55.40;31.38;;;-4.50;99.90;;;;;;4956148;28;20134;-72
2024/01/17 06:37:21;;;;;;;49.53;29.92;;;-4.60;99.90;;;;;;4952104;28;20038;-72
2024/01/17 06:39:48;;;;;;;49.90;31.85;;;-4.60;99.90;;;;;;4965189;28;20051;-71
2024/01/17 06:42:16;;;;;;;51.15;31.45;;;-4.50;99.90;;;;;;4953233;28;20053;-72
2024/01/17 06:44:45;;;;;;;52.90;30.83;;;-4.50;99.90;;;;;;4947640;28;20061;-74
2024/01/17 06:47:12;;;;;;;48.40;31.52;;;-4.50;99.90;;;;;;4944739;28;20070;-72
2024/01/17 06:49:41;;;;;;;47.40;32.30;;;-4.50;99.90;;;;;;4947839;28;20561;-71
2024/01/17 06:52:10;;;;;;;38.03;29.17;;;-4.50;99.90;;;;;;4947756;28;20134;-71
2024/01/17 06:54:37;;;;;;;47.17;30.15;;;-4.40;99.90;;;;;;4941363;28;20074;-72
2024/01/17 06:57:07;;;;;;;50.67;32.35;;;-4.50;99.90;;;;;;4977072;28;20050;-72
2024/01/17 06:59:34;;;;;;;58.92;32.28;;;-4.50;99.90;;;;;;4969054;28;21353;-72
2024/01/17 07:02:01;;;;;;;47.97;28.10;;;-4.50;99.90;;;;;;4972706;28;20053;-74
2024/01/17 07:04:28;;;;;;;47.80;31.23;;;-4.50;99.90;;;;;;4980275;28;20054;-72
2024/01/17 07:06:54;;;;;;;50.55;33.42;;;-4.50;99.90;;;;;;4977224;28;20042;-72
2024/01/17 07:09:22;;;;;;;47.70;29.63;;;-4.50;99.90;;;;;;4977434;28;20140;-72
2024/01/17 07:11:49;;;;;;;42.70;33.35;;;-4.50;99.90;;;;;;4962089;28;20046;-73
2024/01/17 07:14:16;;;;;;;51.17;33.20;;;-4.50;99.90;;;;;;4946829;28;20466;-73
2024/01/17 07:16:43;;;;;;;53.25;31.23;;;-4.40;99.90;;;;;;4970607;28;20128;-72
2024/01/17 07:19:09;;;;;;;53.20;33.58;;;-4.40;99.90;;;;;;4973006;28;20046;-73
2024/01/17 07:21:40;;;;;;;45.78;33.78;;;-4.40;99.90;;;;;;4955598;28;20055;-72
2024/01/17 07:24:07;;;;;;;38.05;27.35;;;-4.40;99.90;;;;;;4939171;28;20054;-73
2024/01/17 07:26:33;;;;;;;49.85;31.85;;;-4.40;99.90;;;;;;4963016;28;20053;-74
2024/01/17 07:29:01;;;;;;;47.53;31.95;;;-4.40;99.90;;;;;;4963920;28;20042;-72
2024/01/17 07:31:28;;;;;;;45.03;31.40;;;-4.30;99.90;;;;;;4959014;28;20459;-74
2024/01/17 07:33:55;;;;;;;48.22;32.95;;;-4.30;99.90;;;;;;4969543;28;20038;-74
2024/01/17 07:36:22;;;;;;;55.92;34.65;;;-4.20;99.90;;;;;;4974394;28;20046;-72
2024/01/17 07:38:48;;;;;;;51.78;32.20;;;-4.20;99.90;;;;;;4971642;28;20103;-72
2024/01/17 07:41:15;;;;;;;52.88;32.70;;;-4.10;99.90;;;;;;4971325;28;20061;-72
2024/01/17 07:43:43;;;;;;;52.05;33.65;;;-4.20;99.90;;;;;;4963115;28;20600;-72
2024/01/17 07:46:12;;;;;;;49.63;33.75;;;-4.10;99.90;;;;;;4978386;28;20069;-72
2024/01/17 07:48:39;;;;;;;49.80;33.97;;;-4.00;99.90;;;;;;4967077;28;20050;-74
2024/01/17 07:51:11;;;;;;;44.40;32.33;;;-4.00;99.90;;;;;;4959441;28;20046;-75
2024/01/17 07:53:38;;;;;;;44.83;30.33;;;-4.00;99.90;;;;;;4945144;28;20046;-74
2024/01/17 07:56:05;;;;;;;41.55;32.28;;;-4.00;99.90;;;;;;4958524;28;20503;-74
2024/01/17 07:58:32;;;;;;;44.50;32.05;;;-3.90;99.90;;;;;;4955438;28;20054;-75
2024/01/17 08:00:59;;;;;;;43.88;25.23;;;-3.90;99.90;;;;;;4958864;28;20046;-74
2024/01/17 08:03:26;;;;;;;41.13;30.73;;;-3.80;99.90;;;;;;4968326;28;20100;-75
2024/01/17 08:05:57;;;;;;;40.65;30.30;;;-3.80;99.90;;;;;;4978193;28;20049;-74
2024/01/17 08:08:24;;;;;;;45.08;31.73;;;-3.80;99.90;;;;;;4950775;28;20055;-74
2024/01/17 08:10:52;;;;;;;37.42;29.80;;;-3.70;99.90;;;;;;4966043;28;20038;-75
2024/01/17 08:13:19;;;;;;;41.42;31.48;;;-3.70;99.90;;;;;;4975395;28;20041;-74
2024/01/17 08:15:46;;;;;;;39.70;32.10;;;-3.70;99.90;;;;;;4953794;28;20051;-75
2024/01/17 08:18:13;;;;;;;40.20;27.98;;;-3.60;99.90;;;;;;4972137;28;20046;-74
2024/01/17 08:20:40;;;;;;;33.97;29.75;;;-3.60;99.90;;;;;;4977572;28;20042;-71
2024/01/17 08:23:08;;;;;;;41.60;31.42;;;-3.50;99.90;;;;;;4966163;28;20046;-74
2024/01/17 08:25:36;;;;;;;35.88;29.67;;;-3.50;99.90;;;;;;4959661;28;20556;-72
2024/01/17 08:28:03;;;;;;;55.05;38.30;;;-3.50;99.90;;;;;;4959344;28;20050;-73
2024/01/17 08:30:30;;;;;;;44.45;34.47;;;-3.40;99.90;;;;;;4955313;28;20153;-72
2024/01/17 08:32:56;;;;;;;44.10;34.75;;;-3.30;99.90;;;;;;4963266;28;20129;-72
2024/01/17 08:35:23;;;;;;;36.60;32.42;;;-3.30;99.90;;;;;;4955316;28;20767;-72
2024/01/17 08:37:50;;;;;;;42.47;33.38;;;-3.30;99.90;;;;;;4965526;28;21364;-73
2024/01/17 08:40:17;;;;;;;37.75;32.47;;;-3.20;99.90;;;;;;4967665;28;20038;-70
2024/01/17 08:42:44;;;;;;;41.88;31.67;;;-3.20;99.90;;;;;;4948145;28;20066;-70
2024/01/17 08:45:11;;;;;;;40.70;34.50;;;-3.20;99.90;;;;;;4971918;28;20042;-71
2024/01/17 08:47:41;;;;;;;39.35;34.10;;;-3.10;99.90;;;;;;4969875;28;20050;-69
2024/01/17 08:50:11;;;;;;;39.78;31.17;;;-3.10;99.90;;;;;;4975077;28;20061;-70
2024/01/17 08:52:38;;;;;;;36.75;32.45;;;-3.10;99.90;;;;;;4969213;28;20042;-70
2024/01/17 08:55:08;;;;;;;36.25;30.23;;;-3.10;99.90;;;;;;4971651;28;20042;-71
2024/01/17 08:57:37;;;;;;;40.85;32.45;;;-3.00;99.90;;;;;;4972402;28;20050;-71
2024/01/17 09:00:05;;;;;;;37.90;33.85;;;-2.90;99.90;;;;;;4988405;28;20054;-71
2024/01/17 09:02:33;;;;;;;33.97;30.17;;;-2.80;99.90;;;;;;4973124;28;20176;-72
2024/01/17 09:05:00;;;;;;;41.75;33.83;;;-2.70;99.90;;;;;;4970936;28;20143;-70
2024/01/17 09:07:27;;;;;;;39.08;32.13;;;-2.60;99.90;;;;;;4965225;28;20050;-70
2024/01/17 09:09:58;;;;;;;37.35;29.92;;;-2.50;99.90;;;;;;4975663;28;20038;-73
2024/01/17 09:12:25;;;;;;;38.10;33.78;;;-2.60;99.90;;;;;;4971376;28;20229;-70
2024/01/17 09:14:53;;;;;;;41.95;33.38;;;-2.60;99.90;;;;;;4962227;28;20050;-71
2024/01/17 09:17:20;;;;;;;34.45;29.58;;;-2.60;99.90;;;;;;4968459;28;20077;-71
2024/01/17 09:19:47;;;;;;;29.48;26.83;;;-2.60;99.90;;;;;;4966525;28;20148;-73
2024/01/17 09:22:14;;;;;;;43.63;33.65;;;-2.60;99.90;;;;;;4973076;28;20130;-72
2024/01/17 09:24:41;;;;;;;41.33;35.28;;;-2.50;99.90;;;;;;4974724;28;20121;-73
2024/01/17 09:27:08;;;;;;;41.10;34.33;;;-2.60;99.90;;;;;;4969920;28;20074;-75
2024/01/17 09:29:35;;;;;;;31.73;28.45;;;-2.40;99.90;;;;;;4964019;28;20581;-72
2024/01/17 09:32:03;;;;;;;39.25;33.40;;;-2.40;99.90;;;;;;4962945;28;20046;-75
2024/01/17 09:34:32;;;;;;;36.92;32.50;;;-2.40;99.90;;;;;;4969970;28;20054;-75
2024/01/17 09:37:02;;;;;;;38.05;31.00;;;-2.30;99.90;;;;;;4966527;28;20081;-72
2024/01/17 09:39:30;;;;;;;35.80;31.30;;;-2.30;99.90;;;;;;4960842;28;20623;-72
2024/01/17 09:41:59;;;;;;;31.63;28.27;;;-2.30;99.90;;;;;;4984568;28;20034;-72
2024/01/17 09:44:27;;;;;;;42.47;36.25;;;-2.20;99.90;;;;;;4965670;28;20564;-72
2024/01/17 09:46:58;;;;;;;41.03;35.42;;;-2.10;99.90;;;;;;4965689;28;20054;-73
2024/01/17 09:49:27;;;;;;;37.22;33.25;;;-2.00;99.90;;;;;;4971790;28;20074;-72
2024/01/17 09:51:54;;;;;;;39.40;34.85;;;-2.00;99.90;;;;;;4966628;28;20042;-73
2024/01/17 09:54:25;;;;;;;37.78;33.25;;;-1.80;99.90;;;;;;4969813;28;20042;-72
2024/01/17 09:56:56;;;;;;;39.35;34.53;;;-1.90;99.90;;;;;;4966383;28;20070;-72
2024/01/17 09:59:28;;;;;;;32.33;29.83;;;-1.80;99.90;;;;;;4969279;28;20061;-72
2024/01/17 10:01:56;;;;;;;40.13;36.13;;;-1.90;99.90;;;;;;4964492;28;20054;-73
2024/01/17 10:04:24;;;;;;;39.72;35.67;;;-1.80;99.90;;;;;;4968778;28;20048;-73
2024/01/17 10:06:52;;;;;;;39.42;35.20;;;-1.70;99.90;;;;;;4960824;28;20817;-72
2024/01/17 10:09:23;;;;;;;38.38;33.65;;;-1.80;99.90;;;;;;4954802;28;20529;-72
2024/01/17 10:11:51;;;;;;;38.40;34.58;;;-1.80;99.90;;;;;;4965647;28;20058;-73
2024/01/17 10:14:23;;;;;;;36.90;33.25;;;-1.80;99.90;;;;;;4964617;28;20038;-73
2024/01/17 10:16:50;;;;;;;37.53;32.45;;;-1.70;99.90;;;;;;4979076;28;20049;-73
2024/01/17 10:19:17;;;;;;;41.30;37.35;;;-1.60;99.90;;;;;;4956617;28;20039;-72
2024/01/17 10:21:45;;;;;;;42.17;38.10;;;-1.50;99.90;;;;;;4977767;28;20034;-73
2024/01/17 10:24:12;;;;;;;43.17;38.65;;;-1.30;99.90;;;;;;4963743;28;20042;-73
2024/01/17 10:26:43;;;;;;;43.38;38.80;;;-1.20;99.90;;;;;;4963450;28;20046;-76
2024/01/17 10:29:11;;;;;;;42.93;38.50;;;-1.00;99.90;;;;;;4970218;28;20073;-74
2024/01/17 10:31:41;;;;;;;44.03;39.60;;;-0.80;99.90;;;;;;4966883;28;20051;-76
2024/01/17 10:34:08;;;;;;;45.85;40.83;;;-0.80;99.90;;;;;;4965565;28;20052;-72
2024/01/17 10:36:39;;;;;;;38.10;34.33;;;-0.80;99.90;;;;;;4969028;28;20045;-72
2024/01/17 10:39:06;;;;;;;41.78;37.53;;;-1.00;99.90;;;;;;4967511;28;20046;-71
2024/01/17 10:41:33;;;;;;;40.10;36.15;;;-1.00;99.90;;;;;;4977830;28;20057;-71
2024/01/17 10:44:02;;;;;;;41.80;37.83;;;-0.80;99.90;;;;;;4964389;28;20052;-70
2024/01/17 10:46:29;;;;;;;38.08;34.28;;;-1.00;99.90;;;;;;4979411;28;20126;-72
2024/01/17 10:49:00;;;;;;;38.05;34.10;;;-1.10;99.90;;;;;;4964583;28;20042;-73
2024/01/17 10:51:32;;;;;;;39.90;36.00;;;-1.00;99.90;;;;;;4971187;28;20145;-73
2024/01/17 10:53:59;;;;;;;41.35;37.35;;;-0.90;99.90;;;;;;4959903;28;20062;-73
2024/01/17 10:56:29;;;;;;;40.97;36.42;;;-0.80;99.90;;;;;;4970508;28;20591;-72
2024/01/17 10:58:58;;;;;;;41.72;37.17;;;-0.70;99.90;;;;;;4961870;28;20042;-73
2024/01/17 11:01:33;;;;;;;42.08;37.72;;;-0.80;99.90;;;;;;4961168;28;20042;-72
2024/01/17 11:04:18;;;;;;;45.65;40.97;;;-0.70;99.90;;;;;;4948044;28;20065;-73
2024/01/17 11:06:45;;;;;;;48.15;40.85;;;-0.70;99.90;;;;;;4978284;28;20049;-73
2024/01/17 11:09:14;;;;;;;39.78;35.88;;;-0.90;99.90;;;;;;4968256;28;20042;-72
2024/01/17 11:11:42;;;;;;;39.80;35.97;;;-0.80;99.90;;;;;;4962216;28;20244;-71
2024/01/17 11:14:10;;;;;;;39.20;35.42;;;-0.90;99.90;;;;;;4964101;28;20124;-72
2024/01/17 11:16:38;;;;;;;50.45;39.25;;;-1.00;99.90;;;;;;4976264;28;20038;-73
2024/01/17 11:19:08;;;;;;;38.42;33.42;;;-1.00;99.90;;;;;;4967362;28;20054;-72
2024/01/17 11:21:36;;;;;;;39.30;35.38;;;-1.10;99.90;;;;;;4969152;28;20533;-71
2024/01/17 11:24:39;;;;;;;39.80;35.50;;;-1.20;99.90;;;;;;4963091;28;20066;-73
2024/01/17 11:27:22;;;;;;;43.88;39.15;;;-1.10;99.90;;;;;;4940233;28;20910;-71
2024/01/17 11:30:04;;;;;;;40.13;35.60;;;-0.90;99.90;;;;;;4963317;28;20047;-71
2024/01/17 11:32:58;;;;;;;40.53;34.33;;;-0.80;99.90;;;;;;4946569;28;20109;-73
2024/01/17 11:35:46;;;;;;;37.55;33.53;;;-0.90;99.90;;;;;;4962794;28;20065;-73
2024/01/17 11:38:23;;;;;;;41.25;36.83;;;-1.00;99.90;;;;;;4948636;28;20052;-70
2024/01/17 11:40:58;;;;;;;40.08;36.00;;;-1.00;99.90;;;;;;4941403;28;20043;-72
2024/01/17 11:43:33;;;;;;;41.38;37.05;;;-0.90;99.90;;;;;;4949762;28;20078;-71
2024/01/17 11:46:04;;;;;;;43.47;36.88;;;-0.90;99.90;;;;;;4942995;28;20051;-74
2024/01/17 11:48:33;;;;;;;45.20;39.20;;;-0.80;99.90;;;;;;4949603;28;20735;-73
2024/01/17 11:51:21;;;;;;;40.22;35.88;;;-0.70;99.90;;;;;;4943816;28;20657;-73
2024/01/17 11:53:50;;;;;;;41.97;37.78;;;-0.70;99.90;;;;;;4944502;28;20042;-73
2024/01/17 11:56:22;;;;;;;42.08;37.78;;;-0.70;99.90;;;;;;4967202;28;20053;-73
2024/01/17 11:59:07;;;;;;;38.05;34.55;;;-0.60;99.90;;;;;;4965792;28;20049;-72
2024/01/17 12:01:34;;;;;;;;;;;-0.70;99.90;;;;;;4965281;28;20609;-72
2024/01/17 12:04:15;;;;;;;38.67;34.70;;;-0.60;99.90;;;;;;4957620;28;21171;-70
2024/01/17 12:06:47;;;;;;;41.47;37.30;;;-0.80;99.90;;;;;;4967471;28;20046;-72
2024/01/17 12:09:20;;;;;;;43.03;38.85;;;-0.70;99.90;;;;;;4967683;28;21187;-71
2024/01/17 12:11:51;;;;;;;43.30;38.97;;;-0.80;99.90;;;;;;4964155;28;20041;-72
2024/01/17 12:14:19;;;;;;;43.28;37.35;;;-0.80;99.90;;;;;;4963273;28;20085;-72
2024/01/17 12:16:47;;;;;;;50.53;41.88;;;-0.80;99.90;;;;;;4961647;28;20050;-72
2024/01/17 12:19:15;;;;;;;42.35;37.80;;;-0.70;99.90;;;;;;4966158;28;21678;-72
2024/01/17 12:21:43;;;;;;;47.10;40.80;;;-0.60;99.90;;;;;;4956478;28;20460;-73
2024/01/17 12:24:14;;;;;;;49.53;40.47;;;-0.70;99.90;;;;;;4964231;28;20540;-73
2024/01/17 12:26:43;;;;;;;46.08;39.58;;;-0.90;99.90;;;;;;4966196;28;20049;-74
2024/01/17 12:29:11;;;;;;;42.25;38.13;;;-0.80;99.90;;;;;;4966739;28;20145;-73
2024/01/17 12:31:38;;;;;;;44.42;39.78;;;-0.70;99.90;;;;;;4964579;28;20046;-74
2024/01/17 12:34:10;;;;;;;34.80;31.38;;;-0.70;99.90;;;;;;4962900;28;20118;-72